Time;durP1;ratioP1;P1;durP2;ratioP2;P2;SDS_P1;SDS_P2;PMS_P1;PMS_P2;Temp;Humidity;BMP_temperature;BMP_pressure;BME280_temperature;BME280_humidity;BME280_pressure;Samples;Min_cycle;Max_cycle;Signal;HPM_P1;HPM_P2
2022/10/12 00:01:28;;;;;;;8.70;3.60;;;6.90;99.90;;;;;;4929117;28;20042;-87
2022/10/12 00:03:54;;;;;;;8.35;3.50;;;6.80;99.90;;;;;;4945182;28;20038;-87
2022/10/12 00:06:22;;;;;;;8.95;3.20;;;6.70;99.90;;;;;;4929297;28;20120;-87
2022/10/12 00:08:50;;;;;;;10.02;4.10;;;6.70;99.90;;;;;;4960779;28;20150;-87
2022/10/12 00:11:24;;;;;;;11.15;4.20;;;6.70;99.90;;;;;;4960295;28;20085;-87
2022/10/12 00:13:50;;;;;;;9.82;4.25;;;6.70;99.90;;;;;;4960374;28;20050;-87
2022/10/12 00:16:18;;;;;;;11.55;4.60;;;6.60;99.90;;;;;;4947125;28;20038;-87
2022/10/12 00:18:44;;;;;;;11.55;4.90;;;6.60;99.90;;;;;;4974052;28;20043;-87
2022/10/12 00:21:15;;;;;;;7.80;3.47;;;6.50;99.90;;;;;;4943119;28;20037;-87
2022/10/12 00:23:42;;;;;;;8.40;3.35;;;6.60;99.90;;;;;;4960866;28;20046;-87
2022/10/12 00:26:12;;;;;;;7.70;3.28;;;6.50;99.90;;;;;;4941198;28;20081;-87
2022/10/12 00:28:38;;;;;;;8.80;3.17;;;6.60;99.90;;;;;;4960150;28;20046;-87
2022/10/12 00:31:15;;;;;;;10.30;3.75;;;7.20;99.90;;;;;;4959940;28;20485;-86
2022/10/12 00:33:41;;;;;;;9.35;3.40;;;6.60;99.90;;;;;;4960415;28;20077;-87
2022/10/12 00:36:12;;;;;;;8.95;4.22;;;6.60;99.90;;;;;;4958410;28;20053;-87
2022/10/12 00:38:38;;;;;;;9.63;4.63;;;6.60;99.90;;;;;;4960493;28;20038;-87
2022/10/12 00:41:04;;;;;;;7.93;3.75;;;6.90;99.90;;;;;;4944738;28;20125;-86
2022/10/12 00:43:40;;;;;;;11.30;4.65;;;6.50;99.90;;;;;;4931232;28;20042;-86
2022/10/12 00:46:37;;;;;;;10.25;4.55;;;6.40;99.90;;;;;;4953774;28;20042;-88
2022/10/12 00:49:24;;;;;;;12.20;4.93;;;6.40;99.90;;;;;;4947105;28;20038;-87
2022/10/12 00:51:57;;;;;;;12.13;4.80;;;6.50;99.90;;;;;;4959876;28;20181;-87
2022/10/12 00:54:28;;;;;;;11.32;4.07;;;6.40;99.90;;;;;;4953110;28;20509;-87
2022/10/12 00:56:55;;;;;;;12.32;5.43;;;6.40;99.90;;;;;;4951645;28;20046;-87
2022/10/12 00:59:29;;;;;;;10.68;5.53;;;6.40;99.90;;;;;;4943079;28;20034;-87
2022/10/12 01:01:55;;;;;;;10.93;5.60;;;6.40;99.90;;;;;;4964048;28;20035;-87
2022/10/12 01:04:22;;;;;;;11.88;5.80;;;6.50;99.90;;;;;;4955314;28;20034;-86
2022/10/12 01:06:50;;;;;;;13.63;6.40;;;6.40;99.90;;;;;;4944325;28;20030;-87
2022/10/12 01:09:16;;;;;;;12.60;6.28;;;6.50;99.90;;;;;;4959641;28;20090;-86
2022/10/12 01:11:42;;;;;;;13.10;5.82;;;6.50;99.90;;;;;;4924862;28;20038;-87
2022/10/12 01:14:07;;;;;;;14.43;6.03;;;6.40;99.90;;;;;;4953896;28;20050;-86
2022/10/12 01:16:55;;;;;;;10.60;5.22;;;6.40;99.90;;;;;;4940623;28;20053;-87
2022/10/12 01:19:39;;;;;;;10.98;6.22;;;6.40;99.90;;;;;;4976154;28;20049;-87
2022/10/12 01:22:10;;;;;;;10.63;5.07;;;6.50;99.90;;;;;;4976313;28;20100;-87
2022/10/12 01:25:03;;;;;;;9.52;4.95;;;6.30;99.90;;;;;;4963933;28;20042;-87
2022/10/12 01:27:32;;;;;;;10.43;4.70;;;6.30;99.90;;;;;;4963754;28;20034;-87
2022/10/12 01:30:24;;;;;;;10.73;6.45;;;6.30;99.90;;;;;;4949926;28;20034;-87
2022/10/12 01:33:12;;;;;;;11.00;5.18;;;6.30;99.90;;;;;;4951514;28;20473;-87
2022/10/12 01:35:50;;;;;;;9.75;5.63;;;6.30;99.90;;;;;;4976764;28;20039;-87
2022/10/12 01:38:40;;;;;;;13.02;6.63;;;6.40;99.90;;;;;;4960016;28;20034;-87
2022/10/12 01:41:06;;;;;;;9.00;5.10;;;6.30;99.90;;;;;;4964132;28;20069;-87
2022/10/12 01:43:34;;;;;;;9.95;4.70;;;6.20;99.90;;;;;;4963101;28;20073;-88
2022/10/12 01:46:14;;;;;;;10.55;5.20;;;6.10;99.90;;;;;;4962960;28;20073;-87
2022/10/12 01:48:41;;;;;;;9.15;4.70;;;6.20;99.90;;;;;;4949339;28;20081;-87
2022/10/12 01:51:09;;;;;;;9.43;4.80;;;6.20;99.90;;;;;;4963842;28;20038;-87
2022/10/12 01:53:54;;;;;;;10.07;4.70;;;6.30;99.90;;;;;;4962265;28;20490;-87
2022/10/12 01:56:40;;;;;;;10.05;4.72;;;6.10;99.90;;;;;;4953890;28;20077;-87
2022/10/12 01:59:24;;;;;;;14.98;6.97;;;6.10;99.90;;;;;;4974771;28;20039;-87
2022/10/12 02:02:11;;;;;;;10.30;4.68;;;6.10;99.90;;;;;;4953349;28;20039;-87
2022/10/12 02:04:43;;;;;;;11.63;5.40;;;6.10;99.90;;;;;;4948741;28;20072;-87
2022/10/12 02:07:15;;;;;;;11.40;5.25;;;6.10;99.90;;;;;;4945165;28;20038;-87
2022/10/12 02:09:42;;;;;;;8.70;4.65;;;6.30;99.90;;;;;;4963524;28;20489;-87
2022/10/12 02:12:14;;;;;;;14.15;5.35;;;6.20;99.90;;;;;;4962916;28;20391;-87
2022/10/12 02:14:45;;;;;;;10.00;4.82;;;6.20;99.90;;;;;;4963321;28;20050;-87
2022/10/12 02:17:15;;;;;;;9.63;4.88;;;6.20;99.90;;;;;;4962763;28;20053;-87
2022/10/12 02:19:57;;;;;;;17.27;9.85;;;6.20;99.90;;;;;;4962932;28;20038;-86
2022/10/12 02:22:26;;;;;;;11.27;6.30;;;6.30;99.90;;;;;;4962717;28;20096;-87
2022/10/12 02:24:56;;;;;;;12.85;5.60;;;6.30;99.90;;;;;;4979361;28;20070;-86
2022/10/12 02:27:23;;;;;;;9.93;6.03;;;6.30;99.90;;;;;;4967500;28;20065;-87
2022/10/12 02:29:49;;;;;;;9.93;5.40;;;6.20;99.90;;;;;;4942843;28;20126;-87
2022/10/12 02:32:18;;;;;;;10.75;5.65;;;6.30;99.90;;;;;;4927432;28;20126;-87
2022/10/12 02:35:10;;;;;;;8.82;5.35;;;6.20;99.90;;;;;;4958458;28;20482;-86
2022/10/12 02:37:45;;;;;;;9.73;5.40;;;6.60;99.90;;;;;;4961872;28;20050;-87
2022/10/12 02:40:28;;;;;;;9.95;5.30;;;6.40;99.90;;;;;;4962308;28;20321;-87
2022/10/12 02:43:00;;;;;;;10.00;5.10;;;6.40;99.90;;;;;;4962206;28;20401;-87
2022/10/12 02:45:27;;;;;;;11.13;5.45;;;6.40;99.90;;;;;;4978232;28;20046;-87
2022/10/12 02:47:54;;;;;;;10.00;4.78;;;6.40;99.90;;;;;;4978257;28;20049;-87
2022/10/12 02:50:22;;;;;;;9.18;5.13;;;6.50;99.90;;;;;;4946891;28;20049;-87
2022/10/12 02:52:50;;;;;;;10.30;6.68;;;6.50;99.90;;;;;;4945442;28;20125;-87
2022/10/12 02:55:16;;;;;;;14.73;7.07;;;6.50;99.90;;;;;;4962879;28;20034;-87
2022/10/12 02:57:42;;;;;;;10.63;5.20;;;6.50;99.90;;;;;;4961731;28;20054;-87
2022/10/12 03:00:08;;;;;;;8.75;4.70;;;6.80;99.90;;;;;;4962282;28;20039;-87
2022/10/12 03:02:34;;;;;;;9.27;4.97;;;6.40;99.90;;;;;;4962096;28;20129;-87
2022/10/12 03:05:00;;;;;;;9.50;5.28;;;6.40;99.90;;;;;;4961825;28;20077;-87
2022/10/12 03:07:25;;;;;;;7.90;5.05;;;6.40;99.90;;;;;;4926950;28;20406;-88
2022/10/12 03:09:51;;;;;;;8.73;4.70;;;6.80;99.90;;;;;;4932915;28;20061;-87
2022/10/12 03:12:17;;;;;;;8.82;5.22;;;6.40;99.90;;;;;;4927938;28;20046;-87
2022/10/12 03:14:42;;;;;;;10.30;4.93;;;6.50;99.90;;;;;;4927039;28;20058;-87
2022/10/12 03:17:08;;;;;;;8.90;5.40;;;6.60;99.90;;;;;;4923543;28;20042;-87
2022/10/12 03:19:34;;;;;;;8.13;4.88;;;6.50;99.90;;;;;;4942838;28;20379;-87
2022/10/12 03:22:00;;;;;;;10.75;5.10;;;6.70;99.90;;;;;;4938171;28;20038;-87
2022/10/12 03:24:25;;;;;;;8.80;5.20;;;6.40;99.90;;;;;;4929942;28;20030;-87
2022/10/12 03:26:51;;;;;;;8.93;4.65;;;6.40;99.90;;;;;;4920829;28;20039;-87
2022/10/12 03:29:17;;;;;;;8.55;4.95;;;6.40;99.90;;;;;;4939505;28;20083;-87
2022/10/12 03:31:43;;;;;;;8.02;4.85;;;6.40;99.90;;;;;;4946135;28;20508;-87
2022/10/12 03:34:08;;;;;;;8.65;4.95;;;6.40;99.90;;;;;;4961773;28;20035;-87
2022/10/12 03:36:34;;;;;;;7.68;4.78;;;6.40;99.90;;;;;;4945644;28;20039;-87
2022/10/12 03:39:00;;;;;;;8.27;4.72;;;6.40;99.90;;;;;;4945832;28;20405;-86
2022/10/12 03:41:25;;;;;;;9.60;5.03;;;6.80;99.90;;;;;;4926549;28;20035;-87
2022/10/12 03:43:51;;;;;;;7.93;4.88;;;6.40;99.90;;;;;;4923389;28;20089;-87
2022/10/12 03:46:17;;;;;;;8.38;4.97;;;6.40;99.90;;;;;;4947932;28;20049;-87
2022/10/12 03:48:42;;;;;;;8.73;4.50;;;6.40;99.90;;;;;;4949128;28;20045;-87
2022/10/12 03:51:08;;;;;;;7.80;4.57;;;6.30;99.90;;;;;;4915241;28;20038;-87
2022/10/12 03:53:34;;;;;;;13.18;7.20;;;6.30;99.90;;;;;;4945586;28;20047;-87
2022/10/12 03:55:59;;;;;;;9.30;5.57;;;6.30;99.90;;;;;;4942609;28;20039;-87
2022/10/12 03:58:25;;;;;;;9.07;4.90;;;6.40;99.90;;;;;;4947087;28;20034;-87
2022/10/12 04:00:54;;;;;;;11.90;6.65;;;6.70;99.90;;;;;;4953437;28;20035;-87
2022/10/12 04:03:20;;;;;;;10.65;6.13;;;6.80;99.90;;;;;;4961069;28;20045;-87
2022/10/12 04:05:54;;;;;;;11.07;5.60;;;6.50;99.90;;;;;;4961257;28;20046;-87
2022/10/12 04:08:20;;;;;;;9.77;5.05;;;6.20;99.90;;;;;;4956752;28;20130;-87
2022/10/12 04:10:45;;;;;;;16.13;10.43;;;6.10;99.90;;;;;;4945169;28;20648;-87
2022/10/12 04:13:11;;;;;;;11.13;5.75;;;6.50;99.90;;;;;;4928340;28;20181;-87
2022/10/12 04:15:37;;;;;;;9.98;5.35;;;6.10;99.90;;;;;;4928466;28;20046;-87
2022/10/12 04:18:03;;;;;;;8.40;5.22;;;6.20;99.90;;;;;;4960472;28;20038;-87
2022/10/12 04:20:28;;;;;;;9.98;5.15;;;6.10;99.90;;;;;;4944911;28;20038;-87
2022/10/12 04:22:54;;;;;;;9.68;4.88;;;6.30;99.90;;;;;;4936461;28;20529;-87
2022/10/12 04:25:20;;;;;;;8.13;4.57;;;6.10;99.90;;;;;;4944806;28;20043;-87
2022/10/12 04:27:45;;;;;;;10.75;5.78;;;6.20;99.90;;;;;;4928665;28;20070;-87
2022/10/12 04:30:11;;;;;;;9.55;5.30;;;6.10;99.90;;;;;;4941566;28;20035;-87
2022/10/12 04:32:37;;;;;;;8.82;4.95;;;6.10;99.90;;;;;;4935151;28;20162;-87
2022/10/12 04:35:03;;;;;;;9.05;5.20;;;6.10;99.90;;;;;;4928641;28;20058;-87
2022/10/12 04:37:29;;;;;;;9.77;5.20;;;6.10;99.90;;;;;;4944492;28;20034;-87
2022/10/12 04:39:54;;;;;;;9.80;5.45;;;6.40;99.90;;;;;;4941563;28;20097;-87
2022/10/12 04:42:21;;;;;;;8.85;5.00;;;6.10;99.90;;;;;;4924796;28;20046;-87
2022/10/12 04:44:46;;;;;;;8.07;4.90;;;6.10;99.90;;;;;;4944698;28;20046;-87
2022/10/12 04:47:12;;;;;;;8.77;4.72;;;6.50;99.90;;;;;;4941511;28;20457;-87
2022/10/12 04:49:38;;;;;;;8.55;5.22;;;6.10;99.90;;;;;;4944378;28;20076;-87
2022/10/12 04:52:03;;;;;;;14.57;7.90;;;6.10;99.90;;;;;;4932239;28;20395;-87
2022/10/12 04:54:31;;;;;;;8.60;4.75;;;6.10;99.90;;;;;;4941621;28;20092;-87
2022/10/12 04:56:57;;;;;;;8.98;4.60;;;6.00;99.90;;;;;;4930336;28;20108;-87
2022/10/12 04:59:23;;;;;;;8.80;5.28;;;6.00;99.90;;;;;;4920233;28;20046;-87
2022/10/12 05:01:49;;;;;;;14.23;7.78;;;6.00;99.90;;;;;;4952460;28;20039;-87
2022/10/12 05:04:15;;;;;;;10.77;5.75;;;6.00;99.90;;;;;;4917189;28;20101;-87
2022/10/12 05:06:40;;;;;;;8.52;4.47;;;6.00;99.90;;;;;;4942221;28;20133;-87
2022/10/12 05:09:06;;;;;;;12.50;5.93;;;5.90;99.90;;;;;;4930231;28;21309;-87
2022/10/12 05:11:32;;;;;;;11.50;6.28;;;6.40;99.90;;;;;;4941211;28;20039;-87
2022/10/12 05:13:57;;;;;;;8.98;5.28;;;6.40;99.90;;;;;;4917703;28;20047;-87
2022/10/12 05:16:23;;;;;;;10.10;5.43;;;6.00;99.90;;;;;;4930084;28;20039;-87
2022/10/12 05:18:49;;;;;;;10.88;5.57;;;5.90;99.90;;;;;;4945731;28;20030;-87
2022/10/12 05:21:15;;;;;;;8.93;5.15;;;6.00;99.90;;;;;;4921262;28;20042;-87
2022/10/12 05:23:41;;;;;;;9.35;5.38;;;6.00;99.90;;;;;;4955692;28;20049;-87
2022/10/12 05:26:07;;;;;;;9.18;5.50;;;6.00;99.90;;;;;;4939750;28;20047;-87
2022/10/12 05:28:32;;;;;;;10.25;5.72;;;5.90;99.90;;;;;;4928541;28;20034;-87
2022/10/12 05:30:58;;;;;;;9.88;5.55;;;5.90;99.90;;;;;;4931173;28;20045;-87
2022/10/12 05:33:24;;;;;;;13.63;7.00;;;5.90;99.90;;;;;;4937666;28;20042;-87
2022/10/12 05:35:50;;;;;;;13.00;7.13;;;5.90;99.90;;;;;;4960152;28;20042;-87
2022/10/12 05:38:15;;;;;;;9.27;5.45;;;5.90;99.90;;;;;;4932817;28;20034;-87
2022/10/12 05:40:42;;;;;;;10.43;6.13;;;5.90;99.90;;;;;;4922174;28;20026;-87
2022/10/12 05:43:08;;;;;;;13.38;6.97;;;5.90;99.90;;;;;;4950661;28;20038;-87
2022/10/12 05:45:33;;;;;;;15.68;9.00;;;6.10;99.90;;;;;;4938642;28;20041;-87
2022/10/12 05:47:59;;;;;;;12.27;6.85;;;5.80;99.90;;;;;;4934929;28;20034;-87
2022/10/12 05:50:25;;;;;;;14.50;8.50;;;5.80;99.90;;;;;;4933241;28;20061;-87
2022/10/12 05:52:50;;;;;;;10.52;6.07;;;5.80;99.90;;;;;;4955953;28;20069;-87
2022/10/12 05:55:16;;;;;;;12.15;6.30;;;5.90;99.90;;;;;;4946577;28;20051;-87
2022/10/12 05:57:42;;;;;;;10.90;6.35;;;5.80;99.90;;;;;;4949262;28;20065;-87
2022/10/12 06:00:09;;;;;;;11.15;6.00;;;5.80;99.90;;;;;;4930039;28;20038;-87
2022/10/12 06:02:35;;;;;;;13.20;6.20;;;5.70;99.90;;;;;;4934006;28;20038;-87
2022/10/12 06:05:00;;;;;;;9.88;6.00;;;5.70;99.90;;;;;;4956639;28;20395;-87
2022/10/12 06:07:26;;;;;;;8.52;5.82;;;5.70;99.90;;;;;;4957728;28;20413;-87
2022/10/12 06:09:52;;;;;;;11.48;6.82;;;5.70;99.90;;;;;;4959957;28;20505;-87
2022/10/12 06:12:19;;;;;;;9.05;5.80;;;5.80;99.90;;;;;;4945191;28;20042;-87
2022/10/12 06:14:44;;;;;;;10.57;6.15;;;5.70;99.90;;;;;;4946137;28;20046;-87
2022/10/12 06:17:10;;;;;;;9.80;5.80;;;5.70;99.90;;;;;;4954029;28;20053;-87
2022/10/12 06:19:36;;;;;;;11.68;6.28;;;5.70;99.90;;;;;;4913895;28;20035;-87
2022/10/12 06:22:02;;;;;;;10.32;5.57;;;5.80;99.90;;;;;;4946765;28;20053;-87
2022/10/12 06:24:28;;;;;;;10.35;6.90;;;5.70;99.90;;;;;;4963218;28;20038;-87
2022/10/12 06:26:54;;;;;;;11.80;6.68;;;5.80;99.90;;;;;;4917958;28;20041;-87
2022/10/12 06:29:22;;;;;;;9.10;5.53;;;5.70;99.90;;;;;;4945312;28;20086;-87
2022/10/12 06:31:49;;;;;;;10.60;5.80;;;5.70;99.90;;;;;;4954795;28;20039;-87
2022/10/12 06:34:14;;;;;;;8.93;5.45;;;5.80;99.90;;;;;;4961630;28;20058;-87
2022/10/12 06:36:40;;;;;;;11.18;5.70;;;5.80;99.90;;;;;;4967128;28;20034;-87
2022/10/12 06:39:06;;;;;;;10.02;5.68;;;5.80;99.90;;;;;;4881717;28;20114;-87
2022/10/12 06:41:32;;;;;;;8.30;5.63;;;5.80;99.90;;;;;;4964268;28;20065;-87
2022/10/12 06:43:57;;;;;;;10.30;5.38;;;5.80;99.90;;;;;;4960978;28;20089;-87
2022/10/12 06:46:23;;;;;;;9.57;5.68;;;6.10;99.90;;;;;;4931931;28;20089;-87
2022/10/12 06:48:49;;;;;;;11.23;6.10;;;5.90;99.90;;;;;;4928873;28;20122;-88
2022/10/12 06:51:15;;;;;;;14.50;9.10;;;5.80;99.90;;;;;;4932203;28;20055;-87
2022/10/12 06:53:40;;;;;;;19.75;9.57;;;5.90;99.90;;;;;;4929577;28;20043;-87
2022/10/12 06:56:07;;;;;;;14.70;8.80;;;5.90;99.90;;;;;;4939074;28;20421;-87
2022/10/12 06:58:33;;;;;;;18.42;10.40;;;5.90;99.90;;;;;;4965511;28;20026;-87
2022/10/12 07:01:05;;;;;;;13.60;7.88;;;5.90;99.90;;;;;;4949450;28;20045;-87
2022/10/12 07:03:31;;;;;;;17.88;9.20;;;5.90;99.90;;;;;;4964711;28;20042;-87
2022/10/12 07:06:07;;;;;;;17.45;9.38;;;6.00;99.90;;;;;;4914278;28;20379;-87
2022/10/12 07:08:33;;;;;;;19.75;10.57;;;5.90;99.90;;;;;;4943159;28;20035;-87
2022/10/12 07:11:04;;;;;;;15.18;9.05;;;6.00;99.90;;;;;;4929115;28;20120;-87
2022/10/12 07:13:31;;;;;;;21.90;10.93;;;6.10;99.90;;;;;;4933180;28;20089;-87
2022/10/12 07:15:57;;;;;;;20.33;11.20;;;6.10;99.90;;;;;;4963325;28;20112;-87
2022/10/12 07:18:23;;;;;;;19.75;11.07;;;6.30;99.90;;;;;;4939338;28;20047;-87
2022/10/12 07:20:49;;;;;;;18.60;10.05;;;6.20;99.90;;;;;;4944055;28;20077;-87
2022/10/12 07:23:15;;;;;;;18.50;10.48;;;6.30;99.90;;;;;;4928443;28;20038;-87
2022/10/12 07:25:47;;;;;;;18.98;9.82;;;6.50;99.90;;;;;;4964361;28;20046;-87
2022/10/12 07:28:12;;;;;;;22.33;10.27;;;7.20;99.90;;;;;;4949986;28;20042;-87
2022/10/12 07:30:38;;;;;;;21.42;9.60;;;6.50;99.90;;;;;;4925181;28;20053;-87
2022/10/12 07:33:04;;;;;;;23.60;11.18;;;6.60;99.90;;;;;;4966978;28;20154;-87
2022/10/12 07:35:29;;;;;;;19.80;10.93;;;6.60;99.90;;;;;;4926892;28;20045;-87
2022/10/12 07:37:55;;;;;;;18.50;9.50;;;6.70;99.90;;;;;;4932294;28;20410;-87
2022/10/12 07:40:21;;;;;;;21.38;10.32;;;6.70;99.90;;;;;;4942911;28;20031;-87
2022/10/12 07:42:47;;;;;;;21.38;10.02;;;6.80;99.90;;;;;;4913813;28;20134;-87
2022/10/12 07:45:12;;;;;;;20.52;10.88;;;6.90;99.90;;;;;;4933291;28;20070;-87
2022/10/12 07:47:38;;;;;;;20.77;10.75;;;7.00;99.90;;;;;;4937222;28;20047;-87
2022/10/12 07:50:04;;;;;;;20.02;10.82;;;7.10;99.90;;;;;;4921951;28;20090;-87
2022/10/12 07:52:31;;;;;;;23.55;12.68;;;7.20;99.90;;;;;;4938894;28;20042;-88
2022/10/12 07:54:57;;;;;;;24.48;11.63;;;7.30;99.90;;;;;;4922009;28;20047;-87
2022/10/12 07:57:22;;;;;;;19.65;9.90;;;7.40;99.90;;;;;;4946041;28;20564;-86
2022/10/12 07:59:48;;;;;;;21.35;11.18;;;7.50;99.90;;;;;;4964166;28;20101;-87
2022/10/12 08:02:14;;;;;;;20.95;11.70;;;7.50;99.90;;;;;;4914896;28;20442;-87
2022/10/12 08:04:39;;;;;;;22.42;10.98;;;7.60;99.90;;;;;;4923300;28;20047;-86
2022/10/12 08:07:05;;;;;;;21.15;10.52;;;7.70;99.90;;;;;;4929811;28;20629;-87
2022/10/12 08:09:31;;;;;;;24.40;10.70;;;7.80;99.90;;;;;;4928012;28;20038;-87
2022/10/12 08:11:57;;;;;;;20.80;10.73;;;7.90;99.90;;;;;;4947562;28;20176;-87
2022/10/12 08:14:22;;;;;;;24.65;11.25;;;8.00;99.90;;;;;;4930520;29;20123;-87
2022/10/12 08:16:48;;;;;;;19.45;9.15;;;8.10;99.90;;;;;;4901677;29;20042;-88
2022/10/12 08:19:14;;;;;;;19.55;8.40;;;8.30;99.90;;;;;;4927662;28;20039;-87
2022/10/12 08:21:41;;;;;;;22.95;8.38;;;8.50;99.90;;;;;;4945269;28;20110;-88
2022/10/12 08:24:10;;;;;;;20.00;8.30;;;8.80;99.90;;;;;;4927961;28;20047;-87
2022/10/12 08:26:36;;;;;;;19.17;8.38;;;9.00;99.90;;;;;;4927730;28;20085;-87
2022/10/12 08:29:04;;;;;;;19.70;8.60;;;9.20;99.90;;;;;;4922793;28;20039;-87
2022/10/12 08:31:30;;;;;;;16.70;8.50;;;9.30;99.90;;;;;;4914846;28;20434;-87
2022/10/12 08:33:57;;;;;;;19.95;8.32;;;9.40;99.90;;;;;;4939237;28;20078;-87
2022/10/12 08:36:22;;;;;;;19.05;8.63;;;9.50;99.90;;;;;;4936803;28;20039;-86
2022/10/12 08:38:53;;;;;;;19.02;8.52;;;9.60;99.90;;;;;;4941349;28;20062;-88
2022/10/12 08:42:04;;;;;;;20.42;8.40;;;9.70;99.90;;;;;;4931611;28;20078;-87
2022/10/12 08:44:42;;;;;;;17.05;7.25;;;9.70;99.90;;;;;;4897893;28;20047;-87
2022/10/12 08:47:42;;;;;;;18.50;7.35;;;9.80;99.90;;;;;;4960278;28;20039;-87
2022/10/12 08:50:15;;;;;;;20.15;6.85;;;9.80;99.90;;;;;;4943281;28;20050;-87
2022/10/12 08:52:53;;;;;;;21.20;7.32;;;9.90;99.90;;;;;;4943455;28;20483;-87
2022/10/12 08:55:38;;;;;;;17.80;7.20;;;10.00;99.90;;;;;;4944746;28;20049;-87
2022/10/12 08:58:14;;;;;;;20.42;7.97;;;10.10;99.90;;;;;;4944160;28;20114;-87
2022/10/12 09:00:41;;;;;;;19.27;7.28;;;10.10;99.90;;;;;;4958217;28;20047;-87
2022/10/12 09:03:07;;;;;;;16.10;7.10;;;10.30;99.90;;;;;;4927277;28;20050;-87
2022/10/12 09:05:50;;;;;;;16.58;7.60;;;10.40;99.90;;;;;;4972188;28;20074;-87
2022/10/12 09:08:33;;;;;;;18.65;7.55;;;10.50;99.90;;;;;;4944764;29;20063;-87
2022/10/12 09:11:20;;;;;;;18.60;6.88;;;10.50;99.90;;;;;;4959892;28;20067;-87
2022/10/12 09:13:51;;;;;;;18.55;7.00;;;10.60;99.90;;;;;;4943261;28;20082;-87
2022/10/12 09:16:21;;;;;;;18.02;7.10;;;10.70;99.90;;;;;;4939433;28;20078;-87
2022/10/12 09:18:56;;;;;;;15.38;6.20;;;10.70;99.90;;;;;;4958500;28;20142;-88
2022/10/12 09:21:25;;;;;;;19.73;6.60;;;10.80;99.90;;;;;;4954235;28;20039;-87
2022/10/12 09:23:53;;;;;;;18.65;6.25;;;10.90;99.90;;;;;;4944802;29;20105;-88
2022/10/12 09:26:34;;;;;;;14.77;6.05;;;10.90;99.90;;;;;;4931178;28;20043;-87
2022/10/12 09:29:02;;;;;;;16.90;6.30;;;11.00;99.90;;;;;;4956373;28;20568;-87
2022/10/12 09:31:58;;;;;;;17.77;5.97;;;11.00;99.90;;;;;;4914172;28;20043;-87
2022/10/12 09:34:24;;;;;;;16.33;5.97;;;11.00;99.90;;;;;;4936193;28;20054;-87
2022/10/12 09:36:50;;;;;;;13.52;5.53;;;11.00;99.90;;;;;;4927223;28;20039;-87
2022/10/12 09:39:19;;;;;;;15.60;6.55;;;11.00;99.90;;;;;;4922825;28;20040;-88
2022/10/12 09:41:46;;;;;;;15.68;6.03;;;11.00;99.90;;;;;;4939000;29;20132;-87
2022/10/12 09:44:21;;;;;;;16.75;6.10;;;11.00;99.90;;;;;;4924790;28;20079;-87
2022/10/12 09:47:05;;;;;;;14.65;6.38;;;11.10;99.90;;;;;;4943949;28;20045;-88
2022/10/12 09:49:45;;;;;;;17.65;6.97;;;11.20;99.90;;;;;;4964502;28;20043;-88
2022/10/12 09:52:14;;;;;;;17.88;6.18;;;11.20;99.90;;;;;;4940640;28;20511;-88
2022/10/12 09:54:56;;;;;;;16.63;6.35;;;11.30;99.90;;;;;;4929764;28;20035;-88
2022/10/12 09:57:32;;;;;;;18.60;6.45;;;11.40;99.90;;;;;;4941448;29;20039;-88
2022/10/12 10:00:01;;;;;;;15.98;6.50;;;11.70;99.90;;;;;;4939989;29;20038;-88
2022/10/12 10:02:27;;;;;;;17.25;5.53;;;11.90;99.90;;;;;;4940016;29;20047;-88
2022/10/12 10:04:54;;;;;;;18.75;6.00;;;12.10;99.90;;;;;;4925983;28;20043;-88
2022/10/12 10:07:29;;;;;;;16.15;5.75;;;12.20;99.90;;;;;;4943902;28;20039;-88
2022/10/12 10:10:24;;;;;;;16.10;5.43;;;12.30;99.90;;;;;;4945121;28;20154;-88
2022/10/12 10:13:00;;;;;;;15.80;6.20;;;12.50;99.90;;;;;;4931392;28;20510;-87
2022/10/12 10:15:39;;;;;;;14.05;5.90;;;12.70;99.90;;;;;;4946075;28;20058;-87
2022/10/12 10:18:18;;;;;;;14.98;5.32;;;12.90;99.90;;;;;;4936963;28;20035;-88
2022/10/12 10:20:56;;;;;;;16.63;5.88;;;13.00;99.90;;;;;;4957733;28;20046;-88
2022/10/12 10:23:31;;;;;;;13.02;4.90;;;13.30;99.90;;;;;;4937989;28;20079;-88
2022/10/12 10:26:11;;;;;;;12.02;4.80;;;13.50;99.90;;;;;;4959980;28;20125;-88
2022/10/12 10:28:39;;;;;;;14.00;5.32;;;13.60;99.90;;;;;;4940808;29;20039;-88
2022/10/12 10:31:14;;;;;;;12.13;5.10;;;13.80;99.90;;;;;;4931403;28;20513;-88
2022/10/12 10:34:22;;;;;;;12.35;4.68;;;13.90;99.90;;;;;;4959377;28;20133;-88
2022/10/12 10:37:18;;;;;;;13.75;4.88;;;14.00;99.90;;;;;;4957199;28;20406;-88
2022/10/12 10:40:03;;;;;;;14.00;4.82;;;13.90;99.90;;;;;;4971685;28;20039;-88
2022/10/12 10:42:50;;;;;;;15.68;5.15;;;13.90;99.90;;;;;;4959800;28;20137;-88
2022/10/12 10:45:46;;;;;;;13.75;4.72;;;13.90;99.90;;;;;;4954706;28;20549;-88
2022/10/12 10:48:28;;;;;;;12.32;4.57;;;14.00;99.90;;;;;;4952893;28;20069;-88
2022/10/12 10:50:59;;;;;;;12.93;4.00;;;14.00;99.90;;;;;;4943078;29;20392;-88
2022/10/12 10:53:43;;;;;;;12.03;3.97;;;14.10;99.90;;;;;;4944682;28;20039;-88
2022/10/12 10:56:30;;;;;;;14.95;4.07;;;14.10;99.90;;;;;;4941011;28;20278;-88
2022/10/12 10:59:17;;;;;;;10.95;3.70;;;14.20;99.90;;;;;;4942253;28;20039;-89
2022/10/12 11:01:43;;;;;;;12.48;4.15;;;14.30;99.90;;;;;;4939955;28;20438;-88
2022/10/12 11:04:14;;;;;;;13.93;4.20;;;14.40;99.90;;;;;;4961096;28;20043;-88
2022/10/12 11:06:43;;;;;;;15.10;3.80;;;14.40;99.90;;;;;;4941447;28;20102;-88
2022/10/12 11:09:28;;;;;;;13.40;4.10;;;14.60;99.90;;;;;;4959838;28;20043;-88
2022/10/12 11:12:08;;;;;;;11.95;3.80;;;14.70;99.90;;;;;;4944526;28;20589;-89
2022/10/12 11:14:40;;;;;;;11.15;3.63;;;14.70;99.90;;;;;;4957951;28;20051;-88
2022/10/12 11:17:16;;;;;;;10.40;3.60;;;14.70;99.90;;;;;;4973812;28;20039;-89
2022/10/12 11:20:15;;;;;;;14.68;4.10;;;14.80;99.90;;;;;;4955280;29;20035;-89
2022/10/12 11:22:53;;;;;;;11.75;3.90;;;14.80;99.90;;;;;;4935208;28;20094;-88
2022/10/12 11:25:32;;;;;;;15.45;4.38;;;14.90;99.90;;;;;;4943454;29;20439;-88
2022/10/12 11:27:58;;;;;;;11.60;4.55;;;14.90;99.90;;;;;;4942840;29;20375;-88
2022/10/12 11:30:28;;;;;;;9.52;3.70;;;14.90;99.90;;;;;;4930353;29;20039;-88
2022/10/12 11:32:58;;;;;;;12.00;3.78;;;15.00;99.90;;;;;;4939592;29;20050;-89
2022/10/12 11:35:51;;;;;;;12.10;3.70;;;15.00;99.90;;;;;;4959638;28;20034;-88
2022/10/12 11:38:32;;;;;;;13.13;4.00;;;15.00;99.90;;;;;;4939799;28;20058;-88
2022/10/12 11:41:14;;;;;;;9.43;3.35;;;15.00;99.90;;;;;;4957998;28;20043;-88
2022/10/12 11:43:54;;;;;;;12.40;3.33;;;15.10;99.90;;;;;;4939891;29;20047;-88
2022/10/12 11:46:32;;;;;;;12.00;3.13;;;15.20;99.90;;;;;;4955546;28;20130;-89
2022/10/12 11:49:23;;;;;;;12.68;3.40;;;15.20;99.90;;;;;;4945527;29;20039;-89
2022/10/12 11:51:51;;;;;;;10.10;3.03;;;15.20;99.90;;;;;;4953237;28;20046;-89
2022/10/12 11:54:26;;;;;;;9.57;2.92;;;15.20;99.90;;;;;;4950938;28;20126;-90
2022/10/12 11:56:57;;;;;;;11.27;3.10;;;15.20;99.90;;;;;;4954656;28;20043;-89
2022/10/12 11:59:41;;;;;;;12.68;3.30;;;15.40;99.70;;;;;;4940991;28;20043;-89
2022/10/12 12:02:13;;;;;;;12.80;3.05;;;15.30;99.90;;;;;;4943190;28;20043;-88
2022/10/12 12:04:45;;;;;;;10.00;2.80;;;15.20;99.90;;;;;;4959868;28;20035;-89
2022/10/12 12:07:38;;;;;;;9.40;2.70;;;15.20;99.90;;;;;;4940977;28;20040;-89
2022/10/12 12:10:26;;;;;;;10.52;2.97;;;15.30;99.90;;;;;;4960165;28;20071;-89
2022/10/12 12:13:13;;;;;;;9.38;2.85;;;15.40;99.90;;;;;;4900431;28;20051;-89
2022/10/12 12:15:48;;;;;;;13.18;3.22;;;15.40;99.90;;;;;;4956757;28;20088;-89
2022/10/12 12:18:20;;;;;;;8.77;2.67;;;15.40;99.90;;;;;;4957665;28;20085;-89
2022/10/12 12:20:46;;;;;;;;;;;15.50;99.90;;;;;;4945407;28;20031;-89
2022/10/12 12:23:23;;;;;;;11.40;3.20;;;15.50;98.50;;;;;;4960304;28;19973;-89
2022/10/12 12:26:10;;;;;;;10.00;3.10;;;15.50;99.90;;;;;;4942246;29;20058;-89
2022/10/12 12:28:38;;;;;;;11.63;3.33;;;15.40;99.90;;;;;;4958751;28;20098;-89
2022/10/12 12:31:12;;;;;;;9.80;2.80;;;15.40;99.50;;;;;;4944396;28;20399;-89
2022/10/12 12:33:41;;;;;;;10.85;3.00;;;15.40;99.90;;;;;;4937596;29;20454;-89
2022/10/12 12:36:10;;;;;;;9.63;2.80;;;15.40;99.60;;;;;;4929945;28;20043;-89
2022/10/12 12:38:40;;;;;;;9.93;3.03;;;15.40;99.90;;;;;;4962474;28;20123;-90
2022/10/12 12:41:15;;;;;;;9.10;3.05;;;15.30;99.90;;;;;;4941850;28;20034;-89
2022/10/12 12:43:44;;;;;;;10.90;2.95;;;15.40;99.20;;;;;;4946580;28;20043;-89
2022/10/12 12:46:12;;;;;;;10.98;3.30;;;15.30;99.70;;;;;;4959069;28;20102;-88
2022/10/12 12:48:38;;;;;;;9.95;3.17;;;15.30;99.90;;;;;;4962585;28;20054;-89
2022/10/12 12:51:17;;;;;;;10.52;3.38;;;15.30;99.90;;;;;;4962889;28;20035;-89
2022/10/12 12:53:51;;;;;;;10.93;3.28;;;15.30;99.90;;;;;;4894153;28;22723;-89
2022/10/12 12:56:23;;;;;;;10.27;3.33;;;15.40;99.90;;;;;;4939898;28;20063;-89
2022/10/12 12:59:17;;;;;;;15.77;3.50;;;15.30;99.80;;;;;;4958677;28;20050;-89
2022/10/12 13:02:03;;;;;;;9.52;3.13;;;15.40;99.90;;;;;;4955258;28;20073;-89
2022/10/12 13:05:07;;;;;;;11.77;3.38;;;15.30;99.90;;;;;;4954855;28;20035;-89
2022/10/12 13:08:03;;;;;;;10.68;3.30;;;15.30;99.90;;;;;;4966628;28;20043;-89